createdAt,value
2023-04-23T00:01:12.361Z,81.30
2023-04-23T00:03:43.207Z,81.40
2023-04-23T00:06:13.707Z,81.60
2023-04-23T00:08:42.765Z,82.70
2023-04-23T00:11:11.444Z,82.30
2023-04-23T00:13:40.061Z,83.30
2023-04-23T00:16:10.792Z,82.50
2023-04-23T00:18:38.915Z,82.50
2023-04-23T00:21:08.819Z,83.30
2023-04-23T00:23:39.138Z,82.50
2023-04-23T00:26:07.370Z,82.50
2023-04-23T00:28:35.449Z,83.00
2023-04-23T00:31:03.819Z,83.10
2023-04-23T00:33:31.899Z,83.80
2023-04-23T00:36:00.677Z,84.30
2023-04-23T00:38:29.021Z,83.50
2023-04-23T00:40:58.421Z,83.70
2023-04-23T00:43:27.137Z,84.50
2023-04-23T00:45:55.279Z,83.80
2023-04-23T00:48:23.924Z,84.30
2023-04-23T00:50:58.292Z,84.50
2023-04-23T00:53:27.878Z,84.80
2023-04-23T00:55:56.059Z,84.80
2023-04-23T00:58:25.829Z,84.80
2023-04-23T01:00:54.308Z,85.60
2023-04-23T01:03:22.996Z,84.80
2023-04-23T01:05:51.515Z,84.50
2023-04-23T01:08:23.261Z,84.20
2023-04-23T01:10:51.764Z,83.60
2023-04-23T01:13:20.084Z,84.50
2023-04-23T01:15:49.600Z,84.00
2023-04-23T01:18:19.378Z,84.40
2023-04-23T01:20:47.726Z,83.40
2023-04-23T01:23:17.263Z,84.30
2023-04-23T01:25:45.724Z,85.40
2023-04-23T01:28:13.984Z,86.70
2023-04-23T01:30:43.705Z,87.70
2023-04-23T01:33:12.495Z,88.60
2023-04-23T01:35:41.604Z,88.00
2023-04-23T01:38:11.533Z,88.40
2023-04-23T01:40:40.908Z,89.00
2023-04-23T01:43:09.774Z,89.80
2023-04-23T01:45:38.318Z,90.40
2023-04-23T01:48:06.742Z,90.40
2023-04-23T01:50:35.109Z,90.00
2023-04-23T01:53:03.424Z,90.90
2023-04-23T01:55:32.008Z,90.80
2023-04-23T01:58:02.015Z,90.60
2023-04-23T02:00:30.236Z,91.60
2023-04-23T02:02:58.992Z,91.70
2023-04-23T02:05:29.586Z,91.70
2023-04-23T02:07:58.163Z,92.50
2023-04-23T02:10:26.645Z,92.90
2023-04-23T02:12:55.367Z,92.90
2023-04-23T02:15:25.199Z,93.10
2023-04-23T02:17:53.974Z,93.50
2023-04-23T02:20:22.872Z,94.00
2023-04-23T02:22:51.521Z,93.80
2023-04-23T02:25:22.149Z,94.10
2023-04-23T02:27:50.626Z,93.40
2023-04-23T02:30:19.867Z,93.90
2023-04-23T02:32:50.168Z,94.90
2023-04-23T02:35:18.640Z,95.60
2023-04-23T02:37:47.355Z,95.80
2023-04-23T02:40:15.501Z,96.20
2023-04-23T02:42:46.139Z,96.70
2023-04-23T02:45:14.271Z,97.40
2023-04-23T02:47:42.827Z,97.80
2023-04-23T02:50:12.568Z,98.30
2023-04-23T02:52:41.459Z,98.30
2023-04-23T02:55:10.766Z,97.40
2023-04-23T02:57:39.804Z,98.00
2023-04-23T03:00:08.804Z,98.10
2023-04-23T03:02:49.441Z,98.40
2023-04-23T03:05:59.355Z,99.10
2023-04-23T03:08:40.900Z,98.80
2023-04-23T03:11:09.637Z,99.00
2023-04-23T03:13:38.239Z,99.00
2023-04-23T03:16:06.467Z,99.30
2023-04-23T03:18:35.726Z,99.50
2023-04-23T03:21:04.318Z,99.90
2023-04-23T03:23:32.953Z,99.90
2023-04-23T03:26:02.740Z,99.90
2023-04-23T03:28:31.458Z,99.90
2023-04-23T03:30:59.912Z,99.90
2023-04-23T03:33:28.221Z,99.40
2023-04-23T03:35:56.949Z,99.90
2023-04-23T03:38:30.118Z,99.90
2023-04-23T03:40:59.769Z,99.90
2023-04-23T03:43:29.926Z,99.90
2023-04-23T03:46:03.920Z,99.90
2023-04-23T03:48:35.947Z,99.90
2023-04-23T03:51:09.203Z,99.90
2023-04-23T03:53:45.601Z,99.90
2023-04-23T03:56:34.178Z,99.90
2023-04-23T03:59:16.005Z,99.90
2023-04-23T04:01:45.967Z,99.90
2023-04-23T04:04:14.231Z,99.90
2023-04-23T04:06:43.176Z,99.90
2023-04-23T04:09:11.390Z,99.90
2023-04-23T04:11:41.103Z,99.90
2023-04-23T04:14:10.467Z,99.90
2023-04-23T04:16:39.887Z,99.90
2023-04-23T04:19:08.460Z,99.90
2023-04-23T04:21:36.881Z,99.90
2023-04-23T04:24:05.847Z,99.90
2023-04-23T04:26:34.571Z,99.90
2023-04-23T04:29:03.158Z,99.90
2023-04-23T04:31:31.358Z,99.90
2023-04-23T04:34:01.426Z,99.90
2023-04-23T04:36:29.939Z,99.90
2023-04-23T04:38:58.816Z,99.90
2023-04-23T04:41:27.860Z,99.90
2023-04-23T04:43:55.975Z,99.90
2023-04-23T04:46:26.197Z,99.90
2023-04-23T04:48:54.280Z,99.90
2023-04-23T04:51:24.343Z,99.90
2023-04-23T04:53:52.739Z,99.90
2023-04-23T04:56:24.371Z,99.90
2023-04-23T04:58:52.486Z,99.90
2023-04-23T05:01:20.955Z,99.90
2023-04-23T05:03:49.577Z,99.90
2023-04-23T05:06:17.850Z,99.90
2023-04-23T05:08:48.662Z,99.90
2023-04-23T05:11:17.275Z,99.90
2023-04-23T05:13:45.646Z,99.90
2023-04-23T05:16:13.811Z,99.90
2023-04-23T05:18:42.406Z,99.90
2023-04-23T05:21:10.729Z,99.90
2023-04-23T05:23:39.247Z,99.90
2023-04-23T05:26:08.884Z,99.90
2023-04-23T05:28:37.250Z,99.90
2023-04-23T05:33:51.326Z,99.90
2023-04-23T05:36:19.586Z,99.90
2023-04-23T05:38:47.803Z,99.90
2023-04-23T05:41:17.565Z,99.90
2023-04-23T05:43:45.743Z,99.90
2023-04-23T05:46:13.785Z,99.90
2023-04-23T05:48:41.902Z,99.90
2023-04-23T05:51:09.987Z,99.90
2023-04-23T05:53:38.487Z,99.90
2023-04-23T05:56:06.865Z,99.90
2023-04-23T05:58:39.043Z,99.90
2023-04-23T06:01:07.385Z,99.90
2023-04-23T06:03:36.722Z,99.90
2023-04-23T06:06:04.956Z,99.90
2023-04-23T06:08:33.685Z,99.90
2023-04-23T06:11:01.986Z,99.90
2023-04-23T06:13:30.899Z,99.90
2023-04-23T06:16:00.634Z,99.90
2023-04-23T06:18:29.169Z,99.90
2023-04-23T06:20:57.888Z,99.90
2023-04-23T06:23:26.484Z,99.90
2023-04-23T06:25:54.503Z,99.90
2023-04-23T06:28:23.200Z,99.90
2023-04-23T06:31:15.204Z,99.90
2023-04-23T06:33:43.478Z,99.90
2023-04-23T06:36:11.783Z,99.90
2023-04-23T06:38:42.020Z,99.90
2023-04-23T06:41:10.059Z,99.90
2023-04-23T06:43:38.568Z,99.90
2023-04-23T06:46:27.579Z,99.90
2023-04-23T06:48:55.946Z,99.90
2023-04-23T06:51:26.198Z,99.90
2023-04-23T06:53:54.787Z,99.90
2023-04-23T06:56:22.973Z,99.90
2023-04-23T06:58:51.369Z,99.90
2023-04-23T07:01:22.417Z,99.90
2023-04-23T07:03:54.378Z,99.90
2023-04-23T07:06:23.186Z,99.90
2023-04-23T07:08:51.222Z,99.90
2023-04-23T07:11:19.710Z,99.90
2023-04-23T07:13:47.909Z,99.90
2023-04-23T07:16:16.815Z,99.90
2023-04-23T07:18:45.145Z,99.90
2023-04-23T07:21:15.227Z,99.90
2023-04-23T07:23:43.320Z,99.90
2023-04-23T07:26:12.392Z,99.90
2023-04-23T07:28:40.413Z,99.90
2023-04-23T07:31:09.366Z,99.90
2023-04-23T07:33:37.440Z,99.90
2023-04-23T07:36:05.798Z,99.90
2023-04-23T07:38:35.460Z,99.90
2023-04-23T07:41:04.069Z,99.90
2023-04-23T07:43:32.160Z,99.90
2023-04-23T07:46:00.482Z,99.90
2023-04-23T07:48:28.667Z,99.90
2023-04-23T07:50:57.148Z,99.90
2023-04-23T07:53:25.228Z,99.90
2023-04-23T07:55:56.218Z,99.90
2023-04-23T07:58:25.498Z,99.90
2023-04-23T08:00:54.335Z,99.90
2023-04-23T08:03:23.399Z,99.90
2023-04-23T08:05:52.007Z,99.90
2023-04-23T08:08:20.656Z,99.90
2023-04-23T08:10:48.712Z,99.90
2023-04-23T08:13:19.618Z,99.90
2023-04-23T08:15:49.069Z,99.90
2023-04-23T08:18:17.659Z,99.90
2023-04-23T08:20:45.759Z,99.90
2023-04-23T08:23:14.264Z,99.90
2023-04-23T08:25:42.642Z,99.90
2023-04-23T08:28:10.796Z,99.90
2023-04-23T08:30:40.259Z,99.90
2023-04-23T08:33:08.856Z,99.90
2023-04-23T08:35:37.320Z,99.90
2023-04-23T08:38:09.612Z,99.90
2023-04-23T08:40:38.281Z,99.90
2023-04-23T08:43:10.329Z,99.90
2023-04-23T08:45:42.440Z,99.90
2023-04-23T08:48:10.990Z,99.90
2023-04-23T08:50:40.227Z,99.90
2023-04-23T08:53:09.017Z,99.90
2023-04-23T08:55:37.622Z,99.90
2023-04-23T08:58:06.339Z,99.90
2023-04-23T09:00:36.736Z,99.90
2023-04-23T09:03:06.984Z,99.90
2023-04-23T09:05:36.145Z,99.90
2023-04-23T09:08:06.635Z,99.90
2023-04-23T09:10:38.732Z,99.90
2023-04-23T09:13:07.056Z,99.90
2023-04-23T09:15:38.867Z,99.90
2023-04-23T09:18:08.467Z,99.90
2023-04-23T09:20:37.374Z,99.90
2023-04-23T09:23:08.066Z,99.90
2023-04-23T09:25:36.775Z,99.90
2023-04-23T09:28:08.022Z,99.90
2023-04-23T09:30:42.436Z,99.90
2023-04-23T09:33:13.530Z,99.90
2023-04-23T09:35:43.262Z,99.90
2023-04-23T09:38:11.523Z,99.90
2023-04-23T09:40:39.786Z,99.90
2023-04-23T09:43:11.515Z,99.90
2023-04-23T09:45:48.634Z,99.90
2023-04-23T09:48:18.105Z,99.90
2023-04-23T09:50:46.599Z,99.90
2023-04-23T09:53:15.004Z,99.90
2023-04-23T09:55:46.094Z,99.90
2023-04-23T09:58:15.635Z,99.90
2023-04-23T10:00:44.585Z,99.90
2023-04-23T10:03:12.923Z,99.90
2023-04-23T10:08:15.971Z,99.90
2023-04-23T10:10:59.591Z,99.90
2023-04-23T10:13:31.616Z,99.90
2023-04-23T10:16:13.926Z,99.90
2023-04-23T10:18:47.535Z,99.90
2023-04-23T10:21:18.535Z,99.90
2023-04-23T10:23:48.252Z,99.90
2023-04-23T10:26:17.041Z,99.90
2023-04-23T10:28:48.314Z,99.90
2023-04-23T10:31:16.971Z,99.90
2023-04-23T10:33:55.905Z,99.90
2023-04-23T10:36:30.553Z,99.90
2023-04-23T10:39:05.145Z,99.90
2023-04-23T10:41:36.496Z,99.90
2023-04-23T10:44:06.163Z,99.90
2023-04-23T10:46:39.207Z,99.90
2023-04-23T10:49:14.404Z,99.90
2023-04-23T10:52:18.512Z,99.90
2023-04-23T10:54:51.379Z,99.90
2023-04-23T10:57:20.877Z,99.90
2023-04-23T10:59:53.495Z,99.90
2023-04-23T11:02:24.269Z,99.90
2023-04-23T11:04:55.493Z,99.90
2023-04-23T11:07:27.038Z,99.90
2023-04-23T11:09:57.635Z,99.90
2023-04-23T11:12:33.190Z,99.90
2023-04-23T11:15:10.687Z,99.90
2023-04-23T11:17:57.217Z,99.90
2023-04-23T11:20:25.325Z,99.90
2023-04-23T11:22:55.349Z,99.90
2023-04-23T11:25:26.330Z,99.90
2023-04-23T11:27:54.970Z,99.90
2023-04-23T11:30:25.083Z,99.90
2023-04-23T11:32:54.015Z,99.90
2023-04-23T11:35:22.936Z,99.90
2023-04-23T11:38:01.206Z,99.90
2023-04-23T11:40:33.151Z,99.90
2023-04-23T11:43:04.259Z,99.90
2023-04-23T11:45:32.398Z,99.90
2023-04-23T11:48:01.812Z,99.90
2023-04-23T11:50:32.932Z,99.90
2023-04-23T11:53:05.133Z,99.90
2023-04-23T11:55:34.597Z,99.90
2023-04-23T11:58:03.939Z,99.90
2023-04-23T12:00:31.978Z,99.90
2023-04-23T12:03:00.645Z,99.90
2023-04-23T12:05:30.151Z,99.90
2023-04-23T12:08:08.591Z,99.90
2023-04-23T12:10:45.090Z,99.90
2023-04-23T12:13:16.481Z,99.90
2023-04-23T12:15:48.310Z,99.90
2023-04-23T12:18:16.598Z,99.90
2023-04-23T12:20:44.783Z,99.90
2023-04-23T12:23:12.842Z,99.90
2023-04-23T12:25:41.512Z,99.90
2023-04-23T12:28:10.960Z,99.90
2023-04-23T12:30:44.263Z,99.90
2023-04-23T12:33:12.629Z,99.90
2023-04-23T12:35:41.368Z,99.90
2023-04-23T12:38:22.171Z,99.90
2023-04-23T12:40:50.417Z,99.90
2023-04-23T12:43:19.818Z,99.90
2023-04-23T12:45:48.041Z,99.90
2023-04-23T12:48:16.185Z,99.90
2023-04-23T12:50:45.443Z,99.90
2023-04-23T12:53:13.653Z,99.90
2023-04-23T12:55:43.361Z,99.90
2023-04-23T12:58:11.565Z,99.30
2023-04-23T13:00:41.034Z,99.90
2023-04-23T13:03:09.373Z,98.50
2023-04-23T13:05:37.486Z,99.90
2023-04-23T13:08:05.597Z,99.00
2023-04-23T13:10:34.394Z,98.00
2023-04-23T13:13:02.562Z,97.00
2023-04-23T13:15:30.941Z,96.80
2023-04-23T13:18:00.501Z,99.20
2023-04-23T13:20:28.633Z,99.90
2023-04-23T13:22:56.806Z,98.40
2023-04-23T13:25:24.884Z,99.30
2023-04-23T13:27:52.958Z,96.80
2023-04-23T13:30:21.079Z,97.50
2023-04-23T13:32:49.125Z,96.90
2023-04-23T13:35:18.729Z,97.20
2023-04-23T13:37:46.809Z,94.90
2023-04-23T13:40:14.900Z,94.20
2023-04-23T13:42:42.951Z,93.10
2023-04-23T13:45:12.958Z,93.20
2023-04-23T13:47:42.500Z,93.40
2023-04-23T13:50:11.346Z,96.20
2023-04-23T13:52:40.984Z,96.90
2023-04-23T13:55:10.269Z,95.40
2023-04-23T13:57:39.615Z,94.80
2023-04-23T14:00:08.327Z,95.30
2023-04-23T14:02:36.543Z,96.20
2023-04-23T14:05:06.517Z,94.30
2023-04-23T14:07:35.058Z,94.40
2023-04-23T14:10:04.699Z,95.00
2023-04-23T14:12:32.914Z,94.80
2023-04-23T14:15:01.099Z,95.60
2023-04-23T14:17:30.985Z,95.40
2023-04-23T14:19:59.070Z,94.80
2023-04-23T14:22:27.338Z,95.70
2023-04-23T14:25:02.433Z,95.10
2023-04-23T14:27:35.470Z,94.20
2023-04-23T14:30:05.306Z,94.10
2023-04-23T14:32:33.480Z,93.60
2023-04-23T14:35:02.980Z,94.00
2023-04-23T14:37:31.456Z,94.30
2023-04-23T14:39:59.501Z,94.00
2023-04-23T14:42:27.601Z,93.80
2023-04-23T14:45:00.379Z,94.60
2023-04-23T14:47:28.522Z,95.50
2023-04-23T14:49:57.946Z,95.90
2023-04-23T14:52:26.605Z,94.40
2023-04-23T14:54:56.754Z,93.90
2023-04-23T14:57:25.745Z,93.80
2023-04-23T14:59:53.810Z,95.10
2023-04-23T15:02:23.356Z,94.60
2023-04-23T15:04:51.652Z,94.80
2023-04-23T15:07:19.983Z,95.10
2023-04-23T15:09:48.127Z,94.30
2023-04-23T15:12:42.267Z,94.70
2023-04-23T15:15:15.563Z,94.50
2023-04-23T15:17:45.385Z,94.50
2023-04-23T15:20:13.565Z,95.10
2023-04-23T15:22:42.160Z,94.80
2023-04-23T15:25:10.374Z,95.70
2023-04-23T15:27:38.644Z,95.20
2023-04-23T15:30:07.623Z,93.80
2023-04-23T15:32:35.675Z,94.40
2023-04-23T15:35:05.433Z,94.40
2023-04-23T15:37:33.454Z,95.70
2023-04-23T15:40:02.013Z,95.80
2023-04-23T15:42:31.610Z,96.50
2023-04-23T15:44:59.890Z,96.90
2023-04-23T15:47:28.000Z,96.60
2023-04-23T15:49:56.118Z,96.70
2023-04-23T15:52:26.167Z,96.90
2023-04-23T15:54:57.288Z,99.00
2023-04-23T15:57:47.158Z,97.50
2023-04-23T16:00:17.110Z,98.10
2023-04-23T16:02:45.822Z,97.10
2023-04-23T16:05:14.309Z,97.80
2023-04-23T16:07:44.658Z,97.40
2023-04-23T16:10:12.916Z,98.00
2023-04-23T16:12:45.404Z,97.50
2023-04-23T16:15:13.543Z,97.80
2023-04-23T16:17:44.627Z,98.20
2023-04-23T16:20:16.401Z,98.60
2023-04-23T16:22:48.978Z,99.10
2023-04-23T16:25:21.136Z,99.60
2023-04-23T16:27:49.579Z,99.90
2023-04-23T16:30:18.528Z,99.90
2023-04-23T16:32:46.969Z,99.90
2023-04-23T16:35:15.042Z,99.90
2023-04-23T16:37:44.363Z,99.90
2023-04-23T16:40:16.330Z,99.90
2023-04-23T16:42:44.633Z,99.90
2023-04-23T16:45:13.117Z,99.90
2023-04-23T16:47:43.676Z,99.90
2023-04-23T16:50:12.738Z,99.90
2023-04-23T16:52:41.394Z,99.90
2023-04-23T16:55:10.151Z,99.90
2023-04-23T16:57:40.448Z,99.90
2023-04-23T17:00:10.185Z,99.90
2023-04-23T17:02:39.334Z,99.90
2023-04-23T17:05:09.128Z,99.90
2023-04-23T17:07:37.288Z,99.90
2023-04-23T17:10:05.778Z,99.90
2023-04-23T17:12:33.882Z,99.90
2023-04-23T17:15:03.477Z,99.90
2023-04-23T17:17:31.596Z,99.90
2023-04-23T17:19:59.632Z,99.90
2023-04-23T17:22:27.722Z,99.90
2023-04-23T17:25:01.573Z,99.90
2023-04-23T17:27:29.983Z,99.90
2023-04-23T17:29:58.089Z,99.90
2023-04-23T17:32:27.584Z,99.90
2023-04-23T17:35:06.450Z,99.90
2023-04-23T17:37:37.332Z,99.90
2023-04-23T17:40:06.264Z,99.90
2023-04-23T17:42:34.390Z,99.90
2023-04-23T17:45:02.479Z,99.90
2023-04-23T17:47:33.489Z,99.90
2023-04-23T17:50:01.642Z,99.90
2023-04-23T17:52:31.371Z,99.90
2023-04-23T17:55:00.228Z,99.90
2023-04-23T17:57:28.313Z,99.90
2023-04-23T17:59:56.450Z,99.90
2023-04-23T18:02:24.769Z,99.90
2023-04-23T18:04:54.414Z,99.90
2023-04-23T18:07:22.458Z,99.90
2023-04-23T18:09:50.568Z,99.90
2023-04-23T18:12:18.846Z,99.90
2023-04-23T18:14:47.163Z,99.90
2023-04-23T18:17:17.444Z,99.90
2023-04-23T18:19:45.534Z,99.90
2023-04-23T18:22:14.996Z,99.90
2023-04-23T18:24:43.632Z,99.90
2023-04-23T18:27:12.946Z,99.90
2023-04-23T18:29:44.051Z,99.90
2023-04-23T18:32:20.891Z,99.90
2023-04-23T18:34:56.239Z,99.90
2023-04-23T18:37:33.241Z,99.90
2023-04-23T18:40:01.376Z,99.90
2023-04-23T18:42:31.007Z,99.90
2023-04-23T18:44:59.057Z,99.90
2023-04-23T18:47:31.909Z,99.90
2023-04-23T18:50:02.237Z,97.10
2023-04-23T18:52:32.799Z,94.50
2023-04-23T18:55:00.841Z,96.10
2023-04-23T18:57:28.918Z,98.20
2023-04-23T18:59:57.016Z,99.90
2023-04-23T19:02:35.202Z,99.90
2023-04-23T19:05:04.056Z,99.90
2023-04-23T19:07:37.057Z,99.90
2023-04-23T19:10:05.438Z,99.90
2023-04-23T19:12:33.562Z,99.90
2023-04-23T19:15:01.618Z,99.90
2023-04-23T19:17:31.288Z,99.90
2023-04-23T19:19:59.375Z,99.90
2023-04-23T19:22:27.697Z,99.90
2023-04-23T19:24:57.615Z,99.90
2023-04-23T19:27:25.969Z,99.90
2023-04-23T19:29:56.903Z,99.90
2023-04-23T19:32:25.068Z,99.90
2023-04-23T19:34:53.811Z,99.90
2023-04-23T19:37:21.919Z,99.90
2023-04-23T19:39:51.192Z,99.90
2023-04-23T19:42:21.511Z,99.90
2023-04-23T19:44:49.773Z,99.90
2023-04-23T19:47:17.958Z,99.90
2023-04-23T19:49:46.960Z,99.90
2023-04-23T19:52:17.742Z,99.90
2023-04-23T19:54:50.262Z,99.90
2023-04-23T19:57:22.075Z,99.90
2023-04-23T19:59:51.744Z,99.90
2023-04-23T20:02:19.930Z,99.90
2023-04-23T20:04:48.355Z,99.90
2023-04-23T20:07:16.897Z,99.90
2023-04-23T20:09:45.349Z,99.90
2023-04-23T20:12:14.486Z,99.90
2023-04-23T20:14:44.047Z,99.90
2023-04-23T20:20:06.474Z,99.90
2023-04-23T20:22:37.302Z,99.90
2023-04-23T20:25:05.698Z,99.90
2023-04-23T20:27:35.784Z,99.90
2023-04-23T20:30:06.422Z,99.90
2023-04-23T20:32:36.543Z,99.90
2023-04-23T20:35:04.824Z,99.90
2023-04-23T20:37:32.894Z,99.90
2023-04-23T20:40:01.213Z,99.90
2023-04-23T20:42:30.740Z,99.90
2023-04-23T20:44:58.787Z,99.90
2023-04-23T20:47:29.198Z,99.90
2023-04-23T20:49:57.274Z,99.90
2023-04-23T20:52:26.334Z,99.90
2023-04-23T20:54:54.442Z,99.90
2023-04-23T20:57:22.721Z,99.90
2023-04-23T20:59:51.553Z,99.90
2023-04-23T21:02:20.175Z,99.90
2023-04-23T21:04:49.734Z,99.90
2023-04-23T21:07:19.116Z,99.90
2023-04-23T21:09:47.181Z,99.90
2023-04-23T21:12:15.675Z,99.90
2023-04-23T21:14:43.869Z,99.90
2023-04-23T21:17:12.123Z,99.90
2023-04-23T21:19:40.632Z,99.90
2023-04-23T21:22:10.772Z,99.90
2023-04-23T21:24:39.250Z,99.90
2023-04-23T21:27:07.388Z,99.90
2023-04-23T21:29:35.945Z,99.90
2023-04-23T21:32:04.094Z,99.90
2023-04-23T21:34:32.689Z,99.90
2023-04-23T21:37:00.982Z,99.90
2023-04-23T21:39:31.260Z,99.90
2023-04-23T21:41:59.720Z,99.90
2023-04-23T21:44:30.866Z,99.90
2023-04-23T21:46:59.409Z,99.90
2023-04-23T21:49:27.908Z,99.90
2023-04-23T21:52:03.490Z,99.90
2023-04-23T21:54:33.310Z,99.90
2023-04-23T21:57:03.265Z,99.90
2023-04-23T22:02:19.499Z,99.90
2023-04-23T22:04:48.528Z,99.90
2023-04-23T22:07:17.161Z,99.90
2023-04-23T22:09:46.553Z,99.90
2023-04-23T22:12:15.318Z,99.90
2023-04-23T22:14:43.577Z,99.90
2023-04-23T22:17:19.081Z,99.90
2023-04-23T22:19:49.291Z,99.90
2023-04-23T22:22:25.074Z,99.90
2023-04-23T22:24:56.705Z,99.90
2023-04-23T22:27:27.543Z,99.90
2023-04-23T22:29:56.239Z,99.90
2023-04-23T22:32:25.716Z,99.90
2023-04-23T22:34:55.337Z,99.90
2023-04-23T22:37:25.197Z,99.90
2023-04-23T22:39:55.183Z,99.90
2023-04-23T22:42:24.095Z,99.90
2023-04-23T22:44:52.645Z,99.90
2023-04-23T22:47:21.817Z,99.90
2023-04-23T22:49:49.984Z,99.90
2023-04-23T22:52:18.424Z,99.90
2023-04-23T22:54:46.871Z,99.90
2023-04-23T22:57:16.645Z,99.90
2023-04-23T22:59:45.314Z,99.90
2023-04-23T23:02:13.507Z,99.90
2023-04-23T23:04:43.293Z,99.90
2023-04-23T23:07:15.541Z,99.90
2023-04-23T23:09:43.968Z,99.90
2023-04-23T23:12:13.374Z,99.90
2023-04-23T23:14:43.237Z,99.90
2023-04-23T23:17:11.566Z,99.90
2023-04-23T23:19:42.741Z,99.90
2023-04-23T23:22:11.816Z,99.90
2023-04-23T23:24:39.849Z,99.90
2023-04-23T23:27:07.936Z,99.90
2023-04-23T23:29:36.577Z,99.90
2023-04-23T23:32:06.633Z,99.90
2023-04-23T23:34:34.990Z,99.90
2023-04-23T23:37:03.101Z,99.90
2023-04-23T23:39:31.203Z,99.90
2023-04-23T23:41:59.962Z,99.90
2023-04-23T23:44:28.308Z,99.90
2023-04-23T23:46:56.506Z,99.90
2023-04-23T23:49:26.112Z,99.90
2023-04-23T23:51:54.273Z,99.90
2023-04-23T23:54:22.313Z,99.90
2023-04-23T23:56:50.454Z,99.90
2023-04-23T23:59:18.564Z,99.90
